sensor_id;sensor_type;location;lat;lon;timestamp;temperature;humidity
8858;DHT22;4465;50.904;4.696;2023-06-14T00:00:16;18.90;76.90
8858;DHT22;4465;50.904;4.696;2023-06-14T00:02:43;18.90;76.10
8858;DHT22;4465;50.904;4.696;2023-06-14T00:05:09;18.80;76.10
8858;DHT22;4465;50.904;4.696;2023-06-14T00:07:36;18.80;75.60
8858;DHT22;4465;50.904;4.696;2023-06-14T00:10:02;18.80;75.70
8858;DHT22;4465;50.904;4.696;2023-06-14T00:12:29;18.80;75.70
8858;DHT22;4465;50.904;4.696;2023-06-14T00:14:55;18.70;77.00
8858;DHT22;4465;50.904;4.696;2023-06-14T00:17:21;18.70;77.60
8858;DHT22;4465;50.904;4.696;2023-06-14T00:19:47;18.70;77.90
8858;DHT22;4465;50.904;4.696;2023-06-14T00:22:13;18.60;77.70
8858;DHT22;4465;50.904;4.696;2023-06-14T00:24:41;18.60;78.10
8858;DHT22;4465;50.904;4.696;2023-06-14T00:27:07;18.60;78.90
8858;DHT22;4465;50.904;4.696;2023-06-14T00:29:33;18.50;78.50
8858;DHT22;4465;50.904;4.696;2023-06-14T00:31:59;18.50;78.70
8858;DHT22;4465;50.904;4.696;2023-06-14T00:34:27;18.50;79.50
8858;DHT22;4465;50.904;4.696;2023-06-14T00:36:53;18.40;78.60
8858;DHT22;4465;50.904;4.696;2023-06-14T00:39:19;18.40;80.20
8858;DHT22;4465;50.904;4.696;2023-06-14T00:41:45;18.40;80.00
8858;DHT22;4465;50.904;4.696;2023-06-14T00:44:11;18.30;79.60
8858;DHT22;4465;50.904;4.696;2023-06-14T00:46:44;18.30;79.40
8858;DHT22;4465;50.904;4.696;2023-06-14T00:49:16;18.20;80.20
8858;DHT22;4465;50.904;4.696;2023-06-14T00:51:43;18.20;80.10
8858;DHT22;4465;50.904;4.696;2023-06-14T00:54:09;18.20;80.10
8858;DHT22;4465;50.904;4.696;2023-06-14T00:56:39;18.10;79.40
8858;DHT22;4465;50.904;4.696;2023-06-14T00:59:06;18.10;78.40
8858;DHT22;4465;50.904;4.696;2023-06-14T01:01:32;18.10;79.70
8858;DHT22;4465;50.904;4.696;2023-06-14T01:03:59;18.10;80.60
8858;DHT22;4465;50.904;4.696;2023-06-14T01:12:11;18.00;81.10
8858;DHT22;4465;50.904;4.696;2023-06-14T01:14:39;18.00;81.30
8858;DHT22;4465;50.904;4.696;2023-06-14T01:17:07;17.90;81.90
8858;DHT22;4465;50.904;4.696;2023-06-14T01:19:42;17.90;81.70
8858;DHT22;4465;50.904;4.696;2023-06-14T01:22:11;17.90;82.40
8858;DHT22;4465;50.904;4.696;2023-06-14T01:24:39;17.90;82.40
8858;DHT22;4465;50.904;4.696;2023-06-14T01:27:05;17.80;81.70
8858;DHT22;4465;50.904;4.696;2023-06-14T01:29:32;17.80;81.70
8858;DHT22;4465;50.904;4.696;2023-06-14T01:32:02;17.80;80.50
8858;DHT22;4465;50.904;4.696;2023-06-14T01:34:28;17.80;80.20
8858;DHT22;4465;50.904;4.696;2023-06-14T01:36:54;17.70;80.00
8858;DHT22;4465;50.904;4.696;2023-06-14T01:39:21;17.70;82.30
8858;DHT22;4465;50.904;4.696;2023-06-14T01:41:49;17.70;83.60
8858;DHT22;4465;50.904;4.696;2023-06-14T01:44:20;17.70;83.30
8858;DHT22;4465;50.904;4.696;2023-06-14T01:46:49;17.60;81.80
8858;DHT22;4465;50.904;4.696;2023-06-14T01:49:16;17.60;81.70
8858;DHT22;4465;50.904;4.696;2023-06-14T01:51:42;17.50;81.80
8858;DHT22;4465;50.904;4.696;2023-06-14T01:54:08;17.50;82.70
8858;DHT22;4465;50.904;4.696;2023-06-14T01:56:34;17.50;82.70
8858;DHT22;4465;50.904;4.696;2023-06-14T01:59:00;17.50;82.60
8858;DHT22;4465;50.904;4.696;2023-06-14T02:01:25;17.40;81.00
8858;DHT22;4465;50.904;4.696;2023-06-14T02:03:52;17.40;82.70
8858;DHT22;4465;50.904;4.696;2023-06-14T02:06:21;17.40;82.30
8858;DHT22;4465;50.904;4.696;2023-06-14T02:08:49;17.30;82.90
8858;DHT22;4465;50.904;4.696;2023-06-14T02:11:18;17.30;83.40
8858;DHT22;4465;50.904;4.696;2023-06-14T02:13:44;17.20;83.60
8858;DHT22;4465;50.904;4.696;2023-06-14T02:16:10;17.20;81.80
8858;DHT22;4465;50.904;4.696;2023-06-14T02:18:40;17.20;82.60
8858;DHT22;4465;50.904;4.696;2023-06-14T02:21:13;17.10;83.30
8858;DHT22;4465;50.904;4.696;2023-06-14T02:23:39;17.10;83.70
8858;DHT22;4465;50.904;4.696;2023-06-14T02:26:07;17.10;83.10
8858;DHT22;4465;50.904;4.696;2023-06-14T02:28:36;17.10;82.60
8858;DHT22;4465;50.904;4.696;2023-06-14T02:31:02;17.00;82.30
8858;DHT22;4465;50.904;4.696;2023-06-14T02:33:30;17.00;83.10
8858;DHT22;4465;50.904;4.696;2023-06-14T02:35:58;17.00;83.00
8858;DHT22;4465;50.904;4.696;2023-06-14T02:38:24;17.00;83.60
8858;DHT22;4465;50.904;4.696;2023-06-14T02:40:53;17.00;84.10
8858;DHT22;4465;50.904;4.696;2023-06-14T02:43:19;16.90;84.30
8858;DHT22;4465;50.904;4.696;2023-06-14T02:45:45;16.90;84.80
8858;DHT22;4465;50.904;4.696;2023-06-14T02:48:13;16.90;84.20
8858;DHT22;4465;50.904;4.696;2023-06-14T02:50:39;16.90;84.40
8858;DHT22;4465;50.904;4.696;2023-06-14T02:53:05;16.80;84.70
8858;DHT22;4465;50.904;4.696;2023-06-14T02:55:34;16.80;83.80
8858;DHT22;4465;50.904;4.696;2023-06-14T02:58:07;16.80;84.50
8858;DHT22;4465;50.904;4.696;2023-06-14T03:00:38;16.70;84.20
8858;DHT22;4465;50.904;4.696;2023-06-14T03:03:04;16.70;84.50
8858;DHT22;4465;50.904;4.696;2023-06-14T03:05:30;16.70;84.00
8858;DHT22;4465;50.904;4.696;2023-06-14T03:07:58;16.70;84.70
8858;DHT22;4465;50.904;4.696;2023-06-14T03:10:24;16.60;85.50
8858;DHT22;4465;50.904;4.696;2023-06-14T03:12:54;16.60;84.50
8858;DHT22;4465;50.904;4.696;2023-06-14T03:15:20;16.50;85.00
8858;DHT22;4465;50.904;4.696;2023-06-14T03:17:51;16.50;84.90
8858;DHT22;4465;50.904;4.696;2023-06-14T03:20:21;16.50;85.30
8858;DHT22;4465;50.904;4.696;2023-06-14T03:22:49;16.40;85.20
8858;DHT22;4465;50.904;4.696;2023-06-14T03:25:16;16.40;86.00
8858;DHT22;4465;50.904;4.696;2023-06-14T03:27:42;16.30;86.20
8858;DHT22;4465;50.904;4.696;2023-06-14T03:30:14;16.30;85.60
8858;DHT22;4465;50.904;4.696;2023-06-14T03:32:40;16.30;86.20
8858;DHT22;4465;50.904;4.696;2023-06-14T03:35:09;16.20;84.90
8858;DHT22;4465;50.904;4.696;2023-06-14T03:37:43;16.20;85.20
8858;DHT22;4465;50.904;4.696;2023-06-14T03:40:10;16.20;85.40
8858;DHT22;4465;50.904;4.696;2023-06-14T03:42:39;16.20;84.90
8858;DHT22;4465;50.904;4.696;2023-06-14T03:45:06;16.10;85.70
8858;DHT22;4465;50.904;4.696;2023-06-14T03:47:34;16.10;86.10
8858;DHT22;4465;50.904;4.696;2023-06-14T03:50:03;16.10;86.20
8858;DHT22;4465;50.904;4.696;2023-06-14T03:52:30;16.10;85.20
8858;DHT22;4465;50.904;4.696;2023-06-14T03:54:57;16.10;84.70
8858;DHT22;4465;50.904;4.696;2023-06-14T03:57:23;16.10;86.20
8858;DHT22;4465;50.904;4.696;2023-06-14T03:59:49;16.20;86.50
8858;DHT22;4465;50.904;4.696;2023-06-14T04:02:15;16.20;86.60
8858;DHT22;4465;50.904;4.696;2023-06-14T04:04:44;16.20;86.70
8858;DHT22;4465;50.904;4.696;2023-06-14T04:07:14;16.20;85.00
8858;DHT22;4465;50.904;4.696;2023-06-14T04:09:41;16.20;86.60
8858;DHT22;4465;50.904;4.696;2023-06-14T04:12:07;16.20;85.40
8858;DHT22;4465;50.904;4.696;2023-06-14T04:14:38;16.30;87.00
8858;DHT22;4465;50.904;4.696;2023-06-14T04:17:04;16.30;87.50
8858;DHT22;4465;50.904;4.696;2023-06-14T04:19:32;16.30;87.50
8858;DHT22;4465;50.904;4.696;2023-06-14T04:21:59;16.30;87.80
8858;DHT22;4465;50.904;4.696;2023-06-14T04:24:28;16.30;88.10
8858;DHT22;4465;50.904;4.696;2023-06-14T04:27:00;16.40;88.30
8858;DHT22;4465;50.904;4.696;2023-06-14T04:29:27;16.50;87.80
8858;DHT22;4465;50.904;4.696;2023-06-14T04:31:55;16.50;87.70
8858;DHT22;4465;50.904;4.696;2023-06-14T04:34:27;16.50;87.90
8858;DHT22;4465;50.904;4.696;2023-06-14T04:36:58;16.60;88.10
8858;DHT22;4465;50.904;4.696;2023-06-14T04:39:27;16.70;88.00
8858;DHT22;4465;50.904;4.696;2023-06-14T04:41:56;16.70;88.50
8858;DHT22;4465;50.904;4.696;2023-06-14T04:44:25;16.80;89.10
8858;DHT22;4465;50.904;4.696;2023-06-14T04:46:57;16.80;88.90
8858;DHT22;4465;50.904;4.696;2023-06-14T04:49:24;16.90;88.90
8858;DHT22;4465;50.904;4.696;2023-06-14T04:51:52;17.00;89.00
8858;DHT22;4465;50.904;4.696;2023-06-14T04:54:23;17.00;89.20
8858;DHT22;4465;50.904;4.696;2023-06-14T04:56:53;17.10;89.70
8858;DHT22;4465;50.904;4.696;2023-06-14T04:59:21;17.20;89.30
8858;DHT22;4465;50.904;4.696;2023-06-14T05:01:51;17.30;89.60
8858;DHT22;4465;50.904;4.696;2023-06-14T05:04:19;17.30;90.00
8858;DHT22;4465;50.904;4.696;2023-06-14T05:06:45;17.40;90.20
8858;DHT22;4465;50.904;4.696;2023-06-14T05:09:14;17.50;90.40
8858;DHT22;4465;50.904;4.696;2023-06-14T05:11:40;17.60;90.60
8858;DHT22;4465;50.904;4.696;2023-06-14T05:14:12;17.70;90.80
8858;DHT22;4465;50.904;4.696;2023-06-14T05:16:38;17.80;90.90
8858;DHT22;4465;50.904;4.696;2023-06-14T05:19:05;17.90;90.90
8858;DHT22;4465;50.904;4.696;2023-06-14T05:21:31;18.00;90.90
8858;DHT22;4465;50.904;4.696;2023-06-14T05:24:02;18.00;90.60
8858;DHT22;4465;50.904;4.696;2023-06-14T05:26:28;18.20;90.90
8858;DHT22;4465;50.904;4.696;2023-06-14T05:28:59;18.20;90.80
8858;DHT22;4465;50.904;4.696;2023-06-14T05:31:27;18.30;90.20
8858;DHT22;4465;50.904;4.696;2023-06-14T05:33:56;18.30;90.10
8858;DHT22;4465;50.904;4.696;2023-06-14T05:36:22;18.40;90.00
8858;DHT22;4465;50.904;4.696;2023-06-14T05:38:53;18.50;89.70
8858;DHT22;4465;50.904;4.696;2023-06-14T05:41:28;18.50;89.80
8858;DHT22;4465;50.904;4.696;2023-06-14T05:43:56;18.60;89.50
8858;DHT22;4465;50.904;4.696;2023-06-14T05:46:23;18.70;90.00
8858;DHT22;4465;50.904;4.696;2023-06-14T05:48:55;18.80;90.10
8858;DHT22;4465;50.904;4.696;2023-06-14T05:51:23;19.00;89.90
8858;DHT22;4465;50.904;4.696;2023-06-14T05:53:52;19.10;89.80
8858;DHT22;4465;50.904;4.696;2023-06-14T05:56:18;19.20;90.00
8858;DHT22;4465;50.904;4.696;2023-06-14T05:58:50;19.30;89.80
8858;DHT22;4465;50.904;4.696;2023-06-14T06:01:16;19.40;89.00
8858;DHT22;4465;50.904;4.696;2023-06-14T06:03:46;19.50;89.70
8858;DHT22;4465;50.904;4.696;2023-06-14T06:06:13;19.60;89.60
8858;DHT22;4465;50.904;4.696;2023-06-14T06:08:39;19.80;89.70
8858;DHT22;4465;50.904;4.696;2023-06-14T06:11:06;19.90;89.20
8858;DHT22;4465;50.904;4.696;2023-06-14T06:13:34;20.00;89.40
8858;DHT22;4465;50.904;4.696;2023-06-14T06:16:03;20.10;89.40
8858;DHT22;4465;50.904;4.696;2023-06-14T06:18:32;20.30;89.30
8858;DHT22;4465;50.904;4.696;2023-06-14T06:20:58;20.40;89.00
8858;DHT22;4465;50.904;4.696;2023-06-14T06:23:23;20.60;89.00
8858;DHT22;4465;50.904;4.696;2023-06-14T06:25:52;20.70;88.80
8858;DHT22;4465;50.904;4.696;2023-06-14T06:28:18;20.80;88.50
8858;DHT22;4465;50.904;4.696;2023-06-14T06:30:43;20.90;88.00
8858;DHT22;4465;50.904;4.696;2023-06-14T06:33:09;21.00;88.10
8858;DHT22;4465;50.904;4.696;2023-06-14T06:35:36;21.20;88.00
8858;DHT22;4465;50.904;4.696;2023-06-14T06:38:02;21.30;87.30
8858;DHT22;4465;50.904;4.696;2023-06-14T06:40:28;21.40;87.20
8858;DHT22;4465;50.904;4.696;2023-06-14T06:42:54;21.50;87.50
8858;DHT22;4465;50.904;4.696;2023-06-14T06:45:20;21.70;87.50
8858;DHT22;4465;50.904;4.696;2023-06-14T06:47:49;21.80;87.10
8858;DHT22;4465;50.904;4.696;2023-06-14T06:50:16;21.90;86.70
8858;DHT22;4465;50.904;4.696;2023-06-14T06:52:41;22.10;86.90
8858;DHT22;4465;50.904;4.696;2023-06-14T06:55:08;22.20;86.60
8858;DHT22;4465;50.904;4.696;2023-06-14T06:57:36;22.40;86.40
8858;DHT22;4465;50.904;4.696;2023-06-14T07:00:03;22.50;86.00
8858;DHT22;4465;50.904;4.696;2023-06-14T07:02:33;22.60;85.10
8858;DHT22;4465;50.904;4.696;2023-06-14T07:04:59;22.80;84.80
8858;DHT22;4465;50.904;4.696;2023-06-14T07:07:25;22.90;84.60
8858;DHT22;4465;50.904;4.696;2023-06-14T07:09:51;22.90;84.40
8858;DHT22;4465;50.904;4.696;2023-06-14T07:12:18;23.00;84.50
8858;DHT22;4465;50.904;4.696;2023-06-14T07:14:46;23.10;83.70
8858;DHT22;4465;50.904;4.696;2023-06-14T07:17:12;23.30;84.00
8858;DHT22;4465;50.904;4.696;2023-06-14T07:19:38;23.40;83.90
8858;DHT22;4465;50.904;4.696;2023-06-14T07:22:04;23.60;84.00
8858;DHT22;4465;50.904;4.696;2023-06-14T07:24:30;23.60;83.60
8858;DHT22;4465;50.904;4.696;2023-06-14T07:26:56;23.80;83.50
8858;DHT22;4465;50.904;4.696;2023-06-14T07:29:22;23.90;83.30
8858;DHT22;4465;50.904;4.696;2023-06-14T07:31:47;24.10;82.70
8858;DHT22;4465;50.904;4.696;2023-06-14T07:34:13;24.20;82.70
8858;DHT22;4465;50.904;4.696;2023-06-14T07:36:40;24.30;81.90
8858;DHT22;4465;50.904;4.696;2023-06-14T07:39:06;24.40;81.60
8858;DHT22;4465;50.904;4.696;2023-06-14T07:41:32;24.40;81.50
8858;DHT22;4465;50.904;4.696;2023-06-14T07:44:01;24.50;80.80
8858;DHT22;4465;50.904;4.696;2023-06-14T07:46:27;24.60;80.10
8858;DHT22;4465;50.904;4.696;2023-06-14T07:48:53;24.70;80.30
8858;DHT22;4465;50.904;4.696;2023-06-14T07:51:21;24.80;80.40
8858;DHT22;4465;50.904;4.696;2023-06-14T07:53:49;24.80;79.80
8858;DHT22;4465;50.904;4.696;2023-06-14T07:56:15;24.90;79.20
8858;DHT22;4465;50.904;4.696;2023-06-14T07:58:41;25.00;78.50
8858;DHT22;4465;50.904;4.696;2023-06-14T08:01:07;25.00;77.80
8858;DHT22;4465;50.904;4.696;2023-06-14T08:03:33;25.00;77.40
8858;DHT22;4465;50.904;4.696;2023-06-14T08:06:02;25.10;77.10
8858;DHT22;4465;50.904;4.696;2023-06-14T08:08:30;25.20;78.20
8858;DHT22;4465;50.904;4.696;2023-06-14T08:10:56;25.30;77.90
8858;DHT22;4465;50.904;4.696;2023-06-14T08:13:22;25.40;77.90
8858;DHT22;4465;50.904;4.696;2023-06-14T08:15:48;25.40;77.80
8858;DHT22;4465;50.904;4.696;2023-06-14T08:18:14;25.50;77.20
8858;DHT22;4465;50.904;4.696;2023-06-14T08:20:40;25.70;77.40
8858;DHT22;4465;50.904;4.696;2023-06-14T08:23:09;25.80;76.80
8858;DHT22;4465;50.904;4.696;2023-06-14T08:25:35;25.90;77.30
8858;DHT22;4465;50.904;4.696;2023-06-14T08:28:01;26.10;76.40
8858;DHT22;4465;50.904;4.696;2023-06-14T08:30:27;26.30;76.90
8858;DHT22;4465;50.904;4.696;2023-06-14T08:32:55;26.50;76.00
8858;DHT22;4465;50.904;4.696;2023-06-14T08:35:24;26.70;75.10
8858;DHT22;4465;50.904;4.696;2023-06-14T08:37:55;26.80;75.30
8858;DHT22;4465;50.904;4.696;2023-06-14T08:40:23;27.00;75.20
8858;DHT22;4465;50.904;4.696;2023-06-14T08:42:53;27.20;75.60
8858;DHT22;4465;50.904;4.696;2023-06-14T08:45:21;27.30;72.90
8858;DHT22;4465;50.904;4.696;2023-06-14T08:47:47;27.30;71.80
8858;DHT22;4465;50.904;4.696;2023-06-14T08:50:21;27.30;71.60
8858;DHT22;4465;50.904;4.696;2023-06-14T08:52:54;27.30;72.30
8858;DHT22;4465;50.904;4.696;2023-06-14T08:55:23;27.30;72.10
8858;DHT22;4465;50.904;4.696;2023-06-14T08:57:56;27.40;72.20
8858;DHT22;4465;50.904;4.696;2023-06-14T09:00:26;27.50;72.20
8858;DHT22;4465;50.904;4.696;2023-06-14T09:02:53;27.50;72.10
8858;DHT22;4465;50.904;4.696;2023-06-14T09:05:26;27.50;71.30
8858;DHT22;4465;50.904;4.696;2023-06-14T09:07:53;27.50;71.60
8858;DHT22;4465;50.904;4.696;2023-06-14T09:10:20;27.40;71.20
8858;DHT22;4465;50.904;4.696;2023-06-14T09:12:47;27.50;71.70
8858;DHT22;4465;50.904;4.696;2023-06-14T09:15:17;27.40;69.30
8858;DHT22;4465;50.904;4.696;2023-06-14T09:17:43;27.40;71.00
8858;DHT22;4465;50.904;4.696;2023-06-14T09:20:12;27.40;68.90
8858;DHT22;4465;50.904;4.696;2023-06-14T09:22:46;27.30;69.10
8858;DHT22;4465;50.904;4.696;2023-06-14T09:25:12;27.20;70.00
8858;DHT22;4465;50.904;4.696;2023-06-14T09:27:45;27.20;68.70
8858;DHT22;4465;50.904;4.696;2023-06-14T09:30:12;27.20;69.20
8858;DHT22;4465;50.904;4.696;2023-06-14T09:32:39;27.20;69.20
8858;DHT22;4465;50.904;4.696;2023-06-14T09:35:09;27.20;68.50
8858;DHT22;4465;50.904;4.696;2023-06-14T09:37:35;27.20;68.30
8858;DHT22;4465;50.904;4.696;2023-06-14T09:40:04;27.20;67.30
8858;DHT22;4465;50.904;4.696;2023-06-14T09:42:31;27.20;67.90
8858;DHT22;4465;50.904;4.696;2023-06-14T09:44:57;27.20;65.70
8858;DHT22;4465;50.904;4.696;2023-06-14T09:47:23;27.10;66.80
8858;DHT22;4465;50.904;4.696;2023-06-14T09:49:51;27.10;65.20
8858;DHT22;4465;50.904;4.696;2023-06-14T09:52:19;27.00;64.30
8858;DHT22;4465;50.904;4.696;2023-06-14T09:54:46;26.80;64.30
8858;DHT22;4465;50.904;4.696;2023-06-14T09:57:20;26.60;63.80
8858;DHT22;4465;50.904;4.696;2023-06-14T09:59:53;26.50;64.80
8858;DHT22;4465;50.904;4.696;2023-06-14T10:02:32;26.40;63.40
8858;DHT22;4465;50.904;4.696;2023-06-14T10:05:06;26.40;64.90
8858;DHT22;4465;50.904;4.696;2023-06-14T10:10:17;26.20;64.90
8858;DHT22;4465;50.904;4.696;2023-06-14T10:12:43;26.00;63.80
8858;DHT22;4465;50.904;4.696;2023-06-14T10:15:35;26.00;64.60
8858;DHT22;4465;50.904;4.696;2023-06-14T10:18:14;26.00;63.70
8858;DHT22;4465;50.904;4.696;2023-06-14T10:23:38;25.90;65.00
8858;DHT22;4465;50.904;4.696;2023-06-14T10:26:07;25.90;64.70
8858;DHT22;4465;50.904;4.696;2023-06-14T10:28:32;26.00;64.30
8858;DHT22;4465;50.904;4.696;2023-06-14T10:33:32;26.00;65.80
8858;DHT22;4465;50.904;4.696;2023-06-14T10:41:37;25.80;63.80
8858;DHT22;4465;50.904;4.696;2023-06-14T10:46:58;25.90;65.10
8858;DHT22;4465;50.904;4.696;2023-06-14T10:49:42;25.90;64.90
8858;DHT22;4465;50.904;4.696;2023-06-14T10:52:13;26.10;66.30
8858;DHT22;4465;50.904;4.696;2023-06-14T10:55:11;26.20;65.90
8858;DHT22;4465;50.904;4.696;2023-06-14T10:57:53;26.30;63.20
8858;DHT22;4465;50.904;4.696;2023-06-14T11:00:25;26.40;64.60
8858;DHT22;4465;50.904;4.696;2023-06-14T11:08:52;26.80;62.80
8858;DHT22;4465;50.904;4.696;2023-06-14T11:11:22;27.20;65.40
8858;DHT22;4465;50.904;4.696;2023-06-14T11:13:54;27.60;65.70
8858;DHT22;4465;50.904;4.696;2023-06-14T11:16:27;28.10;65.90
8858;DHT22;4465;50.904;4.696;2023-06-14T11:18:54;28.60;63.10
8858;DHT22;4465;50.904;4.696;2023-06-14T11:21:23;28.90;60.00
8858;DHT22;4465;50.904;4.696;2023-06-14T11:23:53;29.30;61.00
8858;DHT22;4465;50.904;4.696;2023-06-14T11:26:29;29.70;60.20
8858;DHT22;4465;50.904;4.696;2023-06-14T11:29:00;30.20;60.70
8858;DHT22;4465;50.904;4.696;2023-06-14T11:31:26;30.70;61.90
8858;DHT22;4465;50.904;4.696;2023-06-14T11:33:57;31.30;59.40
8858;DHT22;4465;50.904;4.696;2023-06-14T11:36:27;31.80;58.70
8858;DHT22;4465;50.904;4.696;2023-06-14T11:38:59;32.20;60.00
8858;DHT22;4465;50.904;4.696;2023-06-14T11:41:25;32.80;57.30
8858;DHT22;4465;50.904;4.696;2023-06-14T11:43:54;33.20;59.30
8858;DHT22;4465;50.904;4.696;2023-06-14T11:46:20;33.70;57.50
8858;DHT22;4465;50.904;4.696;2023-06-14T11:48:51;34.10;55.10
8858;DHT22;4465;50.904;4.696;2023-06-14T11:51:19;34.40;56.60
8858;DHT22;4465;50.904;4.696;2023-06-14T11:53:45;34.60;54.00
8858;DHT22;4465;50.904;4.696;2023-06-14T11:56:14;34.80;53.10
8858;DHT22;4465;50.904;4.696;2023-06-14T11:58:42;34.90;53.00
8858;DHT22;4465;50.904;4.696;2023-06-14T12:01:08;35.00;53.30
8858;DHT22;4465;50.904;4.696;2023-06-14T12:03:34;35.30;52.20
8858;DHT22;4465;50.904;4.696;2023-06-14T12:06:05;35.40;52.40
8858;DHT22;4465;50.904;4.696;2023-06-14T12:08:37;35.60;52.80
8858;DHT22;4465;50.904;4.696;2023-06-14T12:11:06;35.70;51.50
8858;DHT22;4465;50.904;4.696;2023-06-14T12:13:34;35.90;51.60
8858;DHT22;4465;50.904;4.696;2023-06-14T12:16:04;35.90;50.50
8858;DHT22;4465;50.904;4.696;2023-06-14T12:18:40;35.90;50.40
8858;DHT22;4465;50.904;4.696;2023-06-14T12:21:07;35.90;48.60
8858;DHT22;4465;50.904;4.696;2023-06-14T12:23:49;36.00;50.30
8858;DHT22;4465;50.904;4.696;2023-06-14T12:26:19;36.10;50.40
8858;DHT22;4465;50.904;4.696;2023-06-14T12:28:46;36.30;50.30
8858;DHT22;4465;50.904;4.696;2023-06-14T12:31:15;36.50;49.70
8858;DHT22;4465;50.904;4.696;2023-06-14T12:33:42;36.40;48.90
8858;DHT22;4465;50.904;4.696;2023-06-14T12:36:09;36.40;49.30
8858;DHT22;4465;50.904;4.696;2023-06-14T12:38:36;36.40;48.30
8858;DHT22;4465;50.904;4.696;2023-06-14T12:41:02;36.30;46.70
8858;DHT22;4465;50.904;4.696;2023-06-14T12:43:28;36.20;47.70
8858;DHT22;4465;50.904;4.696;2023-06-14T12:45:54;36.20;46.20
8858;DHT22;4465;50.904;4.696;2023-06-14T12:48:20;35.90;47.80
8858;DHT22;4465;50.904;4.696;2023-06-14T12:50:49;35.60;46.80
8858;DHT22;4465;50.904;4.696;2023-06-14T12:53:16;35.60;48.80
8858;DHT22;4465;50.904;4.696;2023-06-14T12:55:42;35.70;48.60
8858;DHT22;4465;50.904;4.696;2023-06-14T12:58:10;35.80;46.30
8858;DHT22;4465;50.904;4.696;2023-06-14T13:00:40;35.80;47.40
8858;DHT22;4465;50.904;4.696;2023-06-14T13:03:06;35.70;46.10
8858;DHT22;4465;50.904;4.696;2023-06-14T13:05:32;35.70;46.80
8858;DHT22;4465;50.904;4.696;2023-06-14T13:07:59;35.60;47.60
8858;DHT22;4465;50.904;4.696;2023-06-14T13:10:26;35.50;45.10
8858;DHT22;4465;50.904;4.696;2023-06-14T13:12:52;35.40;46.80
8858;DHT22;4465;50.904;4.696;2023-06-14T13:15:17;35.30;46.60
8858;DHT22;4465;50.904;4.696;2023-06-14T13:17:45;35.20;47.30
8858;DHT22;4465;50.904;4.696;2023-06-14T13:20:14;35.20;48.50
8858;DHT22;4465;50.904;4.696;2023-06-14T13:22:41;35.00;46.60
8858;DHT22;4465;50.904;4.696;2023-06-14T13:25:08;34.70;45.20
8858;DHT22;4465;50.904;4.696;2023-06-14T13:27:36;34.00;45.80
8858;DHT22;4465;50.904;4.696;2023-06-14T13:30:04;33.50;45.00
8858;DHT22;4465;50.904;4.696;2023-06-14T13:32:35;33.10;46.30
8858;DHT22;4465;50.904;4.696;2023-06-14T13:35:01;32.50;45.10
8858;DHT22;4465;50.904;4.696;2023-06-14T13:37:27;32.00;46.10
8858;DHT22;4465;50.904;4.696;2023-06-14T13:39:53;31.60;47.10
8858;DHT22;4465;50.904;4.696;2023-06-14T13:42:18;31.40;48.00
8858;DHT22;4465;50.904;4.696;2023-06-14T13:44:47;31.30;49.10
8858;DHT22;4465;50.904;4.696;2023-06-14T13:47:13;31.00;47.40
8858;DHT22;4465;50.904;4.696;2023-06-14T13:49:41;30.70;47.40
8858;DHT22;4465;50.904;4.696;2023-06-14T13:52:09;30.50;47.80
8858;DHT22;4465;50.904;4.696;2023-06-14T13:54:36;30.30;47.80
8858;DHT22;4465;50.904;4.696;2023-06-14T13:57:05;30.10;47.60
8858;DHT22;4465;50.904;4.696;2023-06-14T13:59:32;29.80;48.90
8858;DHT22;4465;50.904;4.696;2023-06-14T14:01:58;29.60;48.10
8858;DHT22;4465;50.904;4.696;2023-06-14T14:04:24;29.50;48.20
8858;DHT22;4465;50.904;4.696;2023-06-14T14:06:52;29.40;48.80
8858;DHT22;4465;50.904;4.696;2023-06-14T14:09:18;29.20;49.10
8858;DHT22;4465;50.904;4.696;2023-06-14T14:11:44;29.10;49.40
8858;DHT22;4465;50.904;4.696;2023-06-14T14:14:13;29.00;49.90
8858;DHT22;4465;50.904;4.696;2023-06-14T14:16:39;28.90;49.70
8858;DHT22;4465;50.904;4.696;2023-06-14T14:19:05;28.80;50.30
8858;DHT22;4465;50.904;4.696;2023-06-14T14:21:32;28.80;50.70
8858;DHT22;4465;50.904;4.696;2023-06-14T14:23:58;28.70;50.40
8858;DHT22;4465;50.904;4.696;2023-06-14T14:26:25;28.60;50.80
8858;DHT22;4465;50.904;4.696;2023-06-14T14:28:51;28.60;50.80
8858;DHT22;4465;50.904;4.696;2023-06-14T14:31:17;28.40;50.80
8858;DHT22;4465;50.904;4.696;2023-06-14T14:33:43;28.30;50.10
8858;DHT22;4465;50.904;4.696;2023-06-14T14:36:09;28.10;50.40
8858;DHT22;4465;50.904;4.696;2023-06-14T14:38:36;27.90;50.80
8858;DHT22;4465;50.904;4.696;2023-06-14T14:41:07;27.80;51.30
8858;DHT22;4465;50.904;4.696;2023-06-14T14:43:33;27.80;51.60
8858;DHT22;4465;50.904;4.696;2023-06-14T14:45:59;27.70;51.60
8858;DHT22;4465;50.904;4.696;2023-06-14T14:48:27;27.60;51.30
8858;DHT22;4465;50.904;4.696;2023-06-14T14:50:53;27.60;51.40
8858;DHT22;4465;50.904;4.696;2023-06-14T14:53:18;27.40;52.00
8858;DHT22;4465;50.904;4.696;2023-06-14T14:55:45;27.20;51.80
8858;DHT22;4465;50.904;4.696;2023-06-14T14:58:15;27.10;51.70
8858;DHT22;4465;50.904;4.696;2023-06-14T15:00:45;27.10;52.30
8858;DHT22;4465;50.904;4.696;2023-06-14T15:03:11;27.00;52.10
8858;DHT22;4465;50.904;4.696;2023-06-14T15:05:37;26.80;52.30
8858;DHT22;4465;50.904;4.696;2023-06-14T15:08:06;26.70;52.70
8858;DHT22;4465;50.904;4.696;2023-06-14T15:10:40;26.70;53.00
8858;DHT22;4465;50.904;4.696;2023-06-14T15:13:07;26.70;53.60
8858;DHT22;4465;50.904;4.696;2023-06-14T15:15:37;26.70;53.10
8858;DHT22;4465;50.904;4.696;2023-06-14T15:18:03;26.70;53.60
8858;DHT22;4465;50.904;4.696;2023-06-14T15:20:29;26.60;53.10
8858;DHT22;4465;50.904;4.696;2023-06-14T15:22:57;26.60;53.20
8858;DHT22;4465;50.904;4.696;2023-06-14T15:25:28;26.50;53.00
8858;DHT22;4465;50.904;4.696;2023-06-14T15:28:00;26.50;53.30
8858;DHT22;4465;50.904;4.696;2023-06-14T15:30:27;26.50;53.20
8858;DHT22;4465;50.904;4.696;2023-06-14T15:32:53;26.40;53.50
8858;DHT22;4465;50.904;4.696;2023-06-14T15:35:19;26.40;53.60
8858;DHT22;4465;50.904;4.696;2023-06-14T15:37:48;26.40;54.00
8858;DHT22;4465;50.904;4.696;2023-06-14T15:40:19;26.40;54.40
8858;DHT22;4465;50.904;4.696;2023-06-14T15:42:45;26.30;54.70
8858;DHT22;4465;50.904;4.696;2023-06-14T15:45:10;26.30;54.60
8858;DHT22;4465;50.904;4.696;2023-06-14T15:47:39;26.20;55.00
8858;DHT22;4465;50.904;4.696;2023-06-14T15:50:06;26.20;54.30
8858;DHT22;4465;50.904;4.696;2023-06-14T15:52:34;26.20;54.50
8858;DHT22;4465;50.904;4.696;2023-06-14T15:55:00;26.10;54.00
8858;DHT22;4465;50.904;4.696;2023-06-14T15:57:25;26.10;54.00
8858;DHT22;4465;50.904;4.696;2023-06-14T15:59:52;26.10;54.00
8858;DHT22;4465;50.904;4.696;2023-06-14T16:02:17;26.10;54.40
8858;DHT22;4465;50.904;4.696;2023-06-14T16:04:43;26.10;54.60
8858;DHT22;4465;50.904;4.696;2023-06-14T16:07:11;26.00;54.70
8858;DHT22;4465;50.904;4.696;2023-06-14T16:09:39;26.00;54.10
8858;DHT22;4465;50.904;4.696;2023-06-14T16:12:08;26.00;53.50
8858;DHT22;4465;50.904;4.696;2023-06-14T16:14:34;25.90;53.50
8858;DHT22;4465;50.904;4.696;2023-06-14T16:17:00;25.90;53.60
8858;DHT22;4465;50.904;4.696;2023-06-14T16:19:26;25.90;54.20
8858;DHT22;4465;50.904;4.696;2023-06-14T16:21:52;25.80;54.20
8858;DHT22;4465;50.904;4.696;2023-06-14T16:24:18;25.80;54.60
8858;DHT22;4465;50.904;4.696;2023-06-14T16:26:48;25.70;54.80
8858;DHT22;4465;50.904;4.696;2023-06-14T16:29:15;25.80;55.10
8858;DHT22;4465;50.904;4.696;2023-06-14T16:31:41;25.80;55.40
8858;DHT22;4465;50.904;4.696;2023-06-14T16:34:07;25.80;55.30